createdAt,value
2024-01-19T00:00:39.856Z,5.04
2024-01-19T00:03:42.612Z,4.96
2024-01-19T00:06:44.937Z,4.85
2024-01-19T00:09:47.464Z,4.74
2024-01-19T00:12:49.741Z,4.54
2024-01-19T00:15:53.977Z,4.40
2024-01-19T00:18:56.225Z,4.27
2024-01-19T00:21:58.497Z,4.15
2024-01-19T00:25:00.966Z,4.10
2024-01-19T00:28:03.185Z,4.09
2024-01-19T00:31:06.547Z,4.07
2024-01-19T00:34:08.947Z,3.97
2024-01-19T00:37:11.405Z,3.88
2024-01-19T00:40:13.553Z,3.81
2024-01-19T00:43:16.015Z,3.78
2024-01-19T00:46:18.182Z,3.75
2024-01-19T00:49:20.468Z,3.75
2024-01-19T00:52:22.642Z,3.74
2024-01-19T00:55:25.155Z,3.71
2024-01-19T00:58:27.497Z,3.62
2024-01-19T01:01:29.680Z,3.60
2024-01-19T01:04:32.019Z,3.56
2024-01-19T01:07:34.363Z,3.43
2024-01-19T01:10:36.503Z,3.41
2024-01-19T01:13:39.417Z,3.33
2024-01-19T01:16:41.638Z,3.17
2024-01-19T01:19:44.117Z,3.12
2024-01-19T01:22:46.513Z,3.00
2024-01-19T01:25:49.020Z,2.78
2024-01-19T01:28:51.199Z,2.56
2024-01-19T01:31:53.629Z,2.47
2024-01-19T01:34:55.777Z,2.38
2024-01-19T01:37:57.916Z,2.29
2024-01-19T01:41:00.093Z,2.18
2024-01-19T01:44:02.522Z,2.06
2024-01-19T01:47:04.943Z,2.04
2024-01-19T01:50:08.114Z,2.02
2024-01-19T01:53:11.056Z,1.90
2024-01-19T01:56:13.355Z,1.89
2024-01-19T01:59:15.692Z,1.85
2024-01-19T02:02:18.256Z,1.76
2024-01-19T02:05:20.590Z,1.73
2024-01-19T02:08:22.806Z,1.58
2024-01-19T02:11:25.799Z,1.47
2024-01-19T02:14:28.071Z,1.38
2024-01-19T02:17:30.630Z,1.28
2024-01-19T02:20:33.187Z,1.23
2024-01-19T02:23:52.034Z,1.14
2024-01-19T02:26:56.647Z,1.07
2024-01-19T02:29:59.291Z,1.05
2024-01-19T02:33:02.397Z,1.01
2024-01-19T02:36:05.112Z,0.97
2024-01-19T02:39:07.270Z,0.96
2024-01-19T02:42:09.806Z,0.91
2024-01-19T02:45:12.459Z,0.87
2024-01-19T02:48:14.734Z,0.76
2024-01-19T02:51:17.256Z,0.72
2024-01-19T02:54:19.720Z,0.69
2024-01-19T02:57:21.840Z,0.71
2024-01-19T03:00:24.332Z,0.61
2024-01-19T03:03:26.795Z,0.57
2024-01-19T03:06:28.970Z,0.50
2024-01-19T03:09:31.454Z,0.48
2024-01-19T03:12:33.579Z,0.44
2024-01-19T03:15:36.326Z,0.39
2024-01-19T03:18:38.797Z,0.34
2024-01-19T03:21:40.929Z,0.38
2024-01-19T03:24:43.409Z,0.34
2024-01-19T03:27:45.884Z,0.35
2024-01-19T03:30:48.331Z,0.34
2024-01-19T03:33:50.632Z,0.31
2024-01-19T03:36:53.314Z,0.27
2024-01-19T03:39:55.781Z,0.29
2024-01-19T03:42:58.417Z,0.26
2024-01-19T03:46:02.104Z,0.23
2024-01-19T03:49:04.572Z,0.21
2024-01-19T03:52:09.291Z,0.19
2024-01-19T03:55:11.717Z,0.11
2024-01-19T03:58:14.059Z,0.14
2024-01-19T04:01:17.508Z,0.04
2024-01-19T04:04:19.854Z,0.02
2024-01-19T04:07:22.324Z,0.00
2024-01-19T04:10:24.599Z,-0.04
2024-01-19T04:13:27.004Z,-0.05
2024-01-19T04:16:29.613Z,-0.05
2024-01-19T04:19:32.108Z,-0.07
2024-01-19T04:22:34.833Z,-0.03
2024-01-19T04:25:37.049Z,-0.07
2024-01-19T04:28:40.644Z,-0.10
2024-01-19T04:31:43.259Z,-0.15
2024-01-19T04:34:45.782Z,-0.14
2024-01-19T04:37:48.229Z,-0.20
2024-01-19T04:40:50.377Z,-0.26
2024-01-19T04:43:52.490Z,-0.21
2024-01-19T04:46:54.970Z,-0.16
2024-01-19T04:49:57.676Z,-0.18
2024-01-19T04:52:59.920Z,-0.15
2024-01-19T04:56:05.685Z,-0.18
2024-01-19T04:59:08.361Z,-0.14
2024-01-19T05:02:10.544Z,-0.16
2024-01-19T05:05:12.894Z,-0.21
2024-01-19T05:08:15.448Z,-0.23
2024-01-19T05:11:17.737Z,-0.29
2024-01-19T05:14:20.224Z,-0.30
2024-01-19T05:17:22.746Z,-0.30
2024-01-19T05:20:25.251Z,-0.30
2024-01-19T05:23:27.768Z,-0.32
2024-01-19T05:26:31.054Z,-0.32
2024-01-19T05:29:33.224Z,-0.41
2024-01-19T05:32:35.816Z,-0.42
2024-01-19T05:35:38.005Z,-0.48
2024-01-19T05:38:40.163Z,-0.55
2024-01-19T05:41:42.348Z,-0.56
2024-01-19T05:44:46.379Z,-0.60
2024-01-19T05:47:48.959Z,-0.63
2024-01-19T05:50:51.410Z,-0.62
2024-01-19T05:53:53.887Z,-0.69
2024-01-19T05:56:56.508Z,-0.75
2024-01-19T05:59:58.737Z,-0.77
2024-01-19T06:03:01.400Z,-0.78
2024-01-19T06:06:04.982Z,-0.83
2024-01-19T06:09:09.136Z,-0.83
2024-01-19T06:12:11.661Z,-0.84
2024-01-19T06:15:14.313Z,-0.88
2024-01-19T06:18:16.669Z,-0.89
2024-01-19T06:21:19.126Z,-0.89
2024-01-19T06:24:21.539Z,-0.94
2024-01-19T06:27:23.973Z,-0.93
2024-01-19T06:30:26.638Z,-0.94
2024-01-19T06:33:29.466Z,-0.95
2024-01-19T06:36:32.364Z,-0.97
2024-01-19T06:39:35.281Z,-0.97
2024-01-19T06:42:38.628Z,-1.04
2024-01-19T06:45:40.781Z,-1.02
2024-01-19T06:48:43.385Z,-1.04
2024-01-19T06:51:45.676Z,-1.05
2024-01-19T06:54:47.873Z,-1.10
2024-01-19T06:57:50.449Z,-1.11
2024-01-19T07:00:52.643Z,-1.10
2024-01-19T07:03:55.177Z,-1.07
2024-01-19T07:06:58.036Z,-1.10
2024-01-19T07:10:00.217Z,-1.08
2024-01-19T07:13:02.362Z,-1.09
2024-01-19T07:16:05.080Z,-1.12
2024-01-19T07:19:07.993Z,-1.11
2024-01-19T07:22:10.153Z,-1.15
2024-01-19T07:25:12.630Z,-1.17
2024-01-19T07:28:15.039Z,-1.14
2024-01-19T07:31:17.526Z,-1.15
2024-01-19T07:34:20.084Z,-1.17
2024-01-19T07:37:22.311Z,-1.14
2024-01-19T07:40:24.830Z,-1.17
2024-01-19T07:43:26.943Z,-1.20
2024-01-19T07:46:29.428Z,-1.23
2024-01-19T07:49:31.917Z,-1.17
2024-01-19T07:52:34.185Z,-1.17
2024-01-19T07:55:36.736Z,-1.19
2024-01-19T07:58:39.008Z,-1.13
2024-01-19T08:01:41.495Z,-1.21
2024-01-19T08:04:44.365Z,-1.25
2024-01-19T08:07:46.573Z,-1.23
2024-01-19T08:10:48.866Z,-1.20
2024-01-19T08:13:52.064Z,-1.21
2024-01-19T08:16:54.150Z,-1.20
2024-01-19T08:19:56.840Z,-1.20
2024-01-19T08:22:59.477Z,-1.17
2024-01-19T08:26:02.511Z,-1.18
2024-01-19T08:29:05.258Z,-1.23
2024-01-19T08:32:07.670Z,-1.20
2024-01-19T08:35:10.176Z,-1.30
2024-01-19T08:38:14.783Z,-1.37
2024-01-19T08:41:17.196Z,-1.39
2024-01-19T08:44:19.749Z,-1.36
2024-01-19T08:47:22.197Z,-1.39
2024-01-19T08:50:25.736Z,-1.39
2024-01-19T08:53:31.358Z,-1.33
2024-01-19T08:56:34.949Z,-1.32
2024-01-19T08:59:41.159Z,-1.34
2024-01-19T09:02:50.202Z,-1.26
2024-01-19T09:05:59.670Z,-1.24
2024-01-19T09:09:05.014Z,-1.17
2024-01-19T09:12:07.862Z,-1.02
2024-01-19T09:15:10.434Z,-0.89
2024-01-19T09:18:13.149Z,-0.74
2024-01-19T09:21:21.388Z,-0.57
2024-01-19T09:24:23.781Z,-0.43
2024-01-19T09:27:26.044Z,-0.34
2024-01-19T09:30:28.465Z,-0.26
2024-01-19T09:33:30.865Z,-0.19
2024-01-19T09:36:33.544Z,-0.18
2024-01-19T09:39:35.617Z,-0.15
2024-01-19T09:42:41.237Z,-0.16
2024-01-19T09:45:49.017Z,-0.10
2024-01-19T09:49:05.278Z,-0.06
2024-01-19T09:52:10.614Z,-0.05
2024-01-19T09:55:13.083Z,-0.03
2024-01-19T09:58:17.481Z,-0.01
2024-01-19T10:01:19.630Z,0.02
2024-01-19T10:04:22.665Z,0.05
2024-01-19T10:07:25.597Z,0.09
2024-01-19T10:10:27.733Z,-0.12
2024-01-19T10:13:29.979Z,-0.11
2024-01-19T10:16:33.743Z,-0.09
2024-01-19T10:19:37.213Z,-0.05
2024-01-19T10:22:43.673Z,-0.03
2024-01-19T10:25:46.182Z,0.00
2024-01-19T10:28:48.279Z,0.09
2024-01-19T10:31:52.545Z,0.14
2024-01-19T10:35:08.794Z,0.15
2024-01-19T10:38:12.634Z,0.21
2024-01-19T10:41:18.956Z,0.31
2024-01-19T10:44:24.860Z,0.33
2024-01-19T10:47:27.664Z,0.34
2024-01-19T10:50:32.388Z,0.37
2024-01-19T10:53:34.745Z,0.46
2024-01-19T10:56:39.793Z,0.48
2024-01-19T10:59:42.397Z,0.51
2024-01-19T11:02:48.644Z,0.57
2024-01-19T11:05:51.877Z,0.65
2024-01-19T11:08:54.208Z,0.75
2024-01-19T11:12:00.316Z,0.76
2024-01-19T11:15:03.011Z,0.77
2024-01-19T11:18:07.195Z,0.77
2024-01-19T11:21:09.968Z,0.79
2024-01-19T11:24:17.496Z,0.79
2024-01-19T11:27:29.027Z,0.83
2024-01-19T11:30:46.291Z,0.82
2024-01-19T11:33:48.952Z,0.82
2024-01-19T11:36:51.472Z,0.74
2024-01-19T11:39:53.978Z,0.66
2024-01-19T11:42:56.229Z,0.69
2024-01-19T11:45:58.442Z,0.68
2024-01-19T11:49:00.829Z,0.66
2024-01-19T11:52:23.932Z,0.69
2024-01-19T11:55:29.709Z,0.56
2024-01-19T11:58:33.863Z,0.46
2024-01-19T12:01:42.098Z,0.41
2024-01-19T12:04:46.421Z,0.38
2024-01-19T12:07:48.952Z,0.45
2024-01-19T12:11:04.456Z,0.60
2024-01-19T12:14:07.188Z,0.64
2024-01-19T12:17:09.964Z,0.73
2024-01-19T12:20:17.436Z,0.80
2024-01-19T12:23:20.302Z,0.66
2024-01-19T12:26:23.298Z,0.69
2024-01-19T12:29:37.592Z,0.61
2024-01-19T12:32:39.977Z,0.63
2024-01-19T12:35:43.623Z,0.66
2024-01-19T12:38:45.912Z,0.67
2024-01-19T12:42:03.806Z,0.64
2024-01-19T12:45:06.558Z,0.62
2024-01-19T12:48:18.790Z,0.71
2024-01-19T12:51:27.848Z,0.73
2024-01-19T12:54:47.710Z,0.75
2024-01-19T12:57:50.692Z,0.75
2024-01-19T13:00:53.938Z,0.83
2024-01-19T13:03:59.573Z,0.78
2024-01-19T13:07:05.038Z,0.80
2024-01-19T13:10:07.831Z,0.84
2024-01-19T13:13:19.192Z,0.90
2024-01-19T13:16:21.489Z,0.92
2024-01-19T13:19:23.887Z,0.82
2024-01-19T13:22:28.059Z,0.78
2024-01-19T13:25:30.775Z,0.73
2024-01-19T13:28:33.201Z,0.75
2024-01-19T13:31:36.236Z,0.71
2024-01-19T13:34:38.581Z,0.71
2024-01-19T13:37:41.173Z,0.74
2024-01-19T13:40:43.649Z,0.73
2024-01-19T13:43:46.953Z,0.67
2024-01-19T13:46:49.589Z,0.69
2024-01-19T13:49:52.097Z,0.66
2024-01-19T13:52:54.695Z,0.64
2024-01-19T13:55:57.061Z,0.64
2024-01-19T13:58:59.553Z,0.63
2024-01-19T14:02:02.088Z,0.62
2024-01-19T14:05:06.206Z,0.67
2024-01-19T14:08:11.155Z,0.64
2024-01-19T14:11:15.342Z,0.61
2024-01-19T14:14:18.679Z,0.58
2024-01-19T14:17:21.236Z,0.58
2024-01-19T14:20:23.657Z,0.56
2024-01-19T14:23:26.122Z,0.55
2024-01-19T14:26:28.673Z,0.57
2024-01-19T14:29:32.406Z,0.53
2024-01-19T14:32:38.002Z,0.56
2024-01-19T14:35:41.237Z,0.57
2024-01-19T14:38:43.743Z,0.51
2024-01-19T14:41:46.159Z,0.49
2024-01-19T14:44:48.633Z,0.49
2024-01-19T14:47:51.115Z,0.47
2024-01-19T14:50:53.795Z,0.47
2024-01-19T14:53:56.924Z,0.47
2024-01-19T14:57:03.183Z,0.43
2024-01-19T15:00:09.734Z,0.44
2024-01-19T15:03:12.306Z,0.37
2024-01-19T15:06:16.490Z,0.39
2024-01-19T15:09:18.773Z,0.38
2024-01-19T15:12:21.283Z,0.28
2024-01-19T15:15:23.480Z,0.33
2024-01-19T15:18:27.114Z,0.30
2024-01-19T15:21:30.470Z,0.28
2024-01-19T15:24:35.708Z,0.28
2024-01-19T15:27:39.634Z,0.31
2024-01-19T15:30:44.044Z,0.30
2024-01-19T15:33:47.163Z,0.30
2024-01-19T15:36:52.706Z,0.29
2024-01-19T15:39:55.219Z,0.26
2024-01-19T15:42:57.820Z,0.29
2024-01-19T15:46:00.240Z,0.32
2024-01-19T15:49:04.551Z,0.37
2024-01-19T15:52:08.592Z,0.32
2024-01-19T15:55:11.120Z,0.30
2024-01-19T15:58:13.694Z,0.36
2024-01-19T16:01:17.188Z,0.34
2024-01-19T16:04:19.758Z,0.35
2024-01-19T16:07:22.192Z,0.37
2024-01-19T16:10:24.985Z,0.34
2024-01-19T16:13:30.426Z,0.36
2024-01-19T16:16:33.816Z,0.32
2024-01-19T16:19:38.527Z,0.29
2024-01-19T16:22:40.908Z,0.27
2024-01-19T16:25:43.631Z,0.22
2024-01-19T16:28:46.893Z,0.24
2024-01-19T16:31:50.229Z,0.27
2024-01-19T16:34:52.469Z,0.26
2024-01-19T16:37:54.962Z,0.27
2024-01-19T16:40:57.955Z,0.27
2024-01-19T16:44:04.802Z,0.26
2024-01-19T16:47:07.418Z,0.20
2024-01-19T16:50:11.982Z,0.17
2024-01-19T16:53:14.563Z,0.15
2024-01-19T16:56:17.408Z,0.16
2024-01-19T16:59:19.762Z,0.18
2024-01-19T17:02:22.302Z,0.19
2024-01-19T17:05:24.917Z,0.17
2024-01-19T17:08:27.442Z,0.13
2024-01-19T17:11:29.998Z,0.16
2024-01-19T17:14:37.223Z,0.17
2024-01-19T17:17:42.754Z,0.15
2024-01-19T17:20:45.402Z,0.14
2024-01-19T17:23:49.165Z,0.13
2024-01-19T17:26:51.440Z,0.17
2024-01-19T17:29:53.864Z,0.14
2024-01-19T17:32:57.815Z,0.11
2024-01-19T17:36:00.523Z,0.08
2024-01-19T17:39:03.830Z,0.04
2024-01-19T17:42:06.601Z,0.01
2024-01-19T17:45:16.353Z,0.01
2024-01-19T17:48:24.492Z,0.00
2024-01-19T17:51:27.046Z,-0.04
2024-01-19T17:54:32.456Z,0.02
2024-01-19T17:57:36.028Z,0.10
2024-01-19T18:00:38.795Z,0.07
2024-01-19T18:03:41.244Z,0.10
2024-01-19T18:06:43.534Z,0.17
2024-01-19T18:09:47.214Z,0.14
2024-01-19T18:12:49.392Z,0.16
2024-01-19T18:15:51.922Z,0.10
2024-01-19T18:18:54.256Z,0.11
2024-01-19T18:21:57.076Z,0.12
2024-01-19T18:24:59.647Z,0.10
2024-01-19T18:28:02.237Z,0.11
2024-01-19T18:31:04.989Z,0.08
2024-01-19T18:34:08.473Z,-0.06
2024-01-19T18:37:11.100Z,0.05
2024-01-19T18:40:13.686Z,-0.01
2024-01-19T18:43:16.451Z,-0.11
2024-01-19T18:46:18.592Z,-0.10
2024-01-19T18:49:21.079Z,-0.17
2024-01-19T18:52:23.598Z,-0.17
2024-01-19T18:55:26.244Z,-0.16
2024-01-19T18:58:29.806Z,-0.20
2024-01-19T19:01:35.004Z,-0.26
2024-01-19T19:04:37.620Z,-0.27
2024-01-19T19:07:40.017Z,-0.28
2024-01-19T19:10:43.815Z,-0.22
2024-01-19T19:13:46.742Z,-0.23
2024-01-19T19:16:49.490Z,-0.27
2024-01-19T19:19:52.151Z,-0.27
2024-01-19T19:22:58.354Z,-0.30
2024-01-19T19:26:01.150Z,-0.29
2024-01-19T19:29:04.308Z,-0.35
2024-01-19T19:32:06.653Z,-0.44
2024-01-19T19:35:09.224Z,-0.45
2024-01-19T19:38:11.492Z,-0.40
2024-01-19T19:41:14.352Z,-0.47
2024-01-19T19:44:16.705Z,-0.47
2024-01-19T19:47:19.105Z,-0.50
2024-01-19T19:50:21.726Z,-0.52
2024-01-19T19:53:24.007Z,-0.57
2024-01-19T19:56:26.539Z,-0.55
2024-01-19T19:59:29.307Z,-0.56
2024-01-19T20:02:31.646Z,-0.47
2024-01-19T20:05:34.109Z,-0.49
2024-01-19T20:08:37.385Z,-0.41
2024-01-19T20:11:39.912Z,-0.42
2024-01-19T20:14:42.688Z,-0.42
2024-01-19T20:17:45.382Z,-0.46
2024-01-19T20:20:50.067Z,-0.48
2024-01-19T20:23:52.422Z,-0.53
2024-01-19T20:26:55.483Z,-0.52
2024-01-19T20:29:58.205Z,-0.61
2024-01-19T20:33:02.463Z,-0.65
2024-01-19T20:36:05.648Z,-0.67
2024-01-19T20:39:08.785Z,-0.67
2024-01-19T20:42:11.526Z,-0.73
2024-01-19T20:45:14.752Z,-0.73
2024-01-19T20:48:17.369Z,-0.73
2024-01-19T20:51:19.651Z,-0.77
2024-01-19T20:54:25.665Z,-0.85
2024-01-19T20:57:27.991Z,-0.89
2024-01-19T21:00:32.044Z,-0.96
2024-01-19T21:03:34.648Z,-1.04
2024-01-19T21:06:37.374Z,-1.13
2024-01-19T21:09:44.213Z,-1.09
2024-01-19T21:12:48.756Z,-1.17
2024-01-19T21:15:53.541Z,-1.25
2024-01-19T21:18:56.645Z,-1.26
2024-01-19T21:22:04.243Z,-1.36
2024-01-19T21:25:09.396Z,-1.34
2024-01-19T21:28:11.636Z,-1.43
2024-01-19T21:31:14.245Z,-1.47
2024-01-19T21:34:17.796Z,-1.52
2024-01-19T21:37:21.105Z,-1.39
2024-01-19T21:40:25.299Z,-1.43
2024-01-19T21:43:28.114Z,-1.53
2024-01-19T21:46:30.644Z,-1.61
2024-01-19T21:49:33.180Z,-1.67
2024-01-19T21:52:35.957Z,-1.67
2024-01-19T21:55:38.683Z,-1.71
2024-01-19T21:58:41.119Z,-1.69
2024-01-19T22:01:49.493Z,-1.72
2024-01-19T22:04:52.619Z,-1.72
2024-01-19T22:07:55.229Z,-1.71
2024-01-19T22:10:57.919Z,-1.76
2024-01-19T22:14:01.011Z,-1.77
2024-01-19T22:17:05.554Z,-1.71
2024-01-19T22:20:08.349Z,-1.71
2024-01-19T22:23:10.560Z,-1.75
2024-01-19T22:26:13.157Z,-1.79
2024-01-19T22:29:15.995Z,-1.85
2024-01-19T22:32:18.522Z,-1.85
2024-01-19T22:35:21.092Z,-1.90
2024-01-19T22:38:24.208Z,-1.96
2024-01-19T22:41:27.180Z,-1.93
2024-01-19T22:44:32.524Z,-2.01
2024-01-19T22:47:35.062Z,-2.04
2024-01-19T22:50:37.641Z,-2.08
2024-01-19T22:53:42.220Z,-2.13
2024-01-19T22:56:44.639Z,-2.17
2024-01-19T22:59:48.974Z,-2.17
2024-01-19T23:02:51.499Z,-2.17
2024-01-19T23:05:54.506Z,-2.16
2024-01-19T23:08:57.158Z,-2.18
2024-01-19T23:11:59.723Z,-2.27
2024-01-19T23:15:09.097Z,-2.33
2024-01-19T23:18:12.033Z,-2.36
2024-01-19T23:21:15.119Z,-2.39
2024-01-19T23:24:18.156Z,-2.53
2024-01-19T23:27:20.383Z,-2.65
2024-01-19T23:30:22.861Z,-2.72
2024-01-19T23:33:25.312Z,-2.84
2024-01-19T23:36:27.656Z,-2.98
2024-01-19T23:39:31.293Z,-2.96
2024-01-19T23:42:33.607Z,-3.05
2024-01-19T23:45:36.236Z,-3.21
2024-01-19T23:48:38.965Z,-3.26
2024-01-19T23:51:41.477Z,-3.35
2024-01-19T23:54:43.909Z,-3.43
2024-01-19T23:57:46.605Z,-3.46
